createdAt,value
2019-03-30T00:04:04.377Z,6.33
2019-03-30T00:08:16.109Z,8.43
2019-03-30T00:12:27.678Z,10.00
2019-03-30T00:16:39.483Z,10.23
2019-03-30T00:20:52.640Z,9.73
2019-03-30T00:25:06.504Z,10.60
2019-03-30T00:29:18.691Z,10.80
2019-03-30T00:33:30.817Z,10.20
2019-03-30T00:37:42.755Z,10.67
2019-03-30T00:41:54.946Z,9.57
2019-03-30T00:46:06.866Z,10.50
2019-03-30T00:50:20.324Z,11.10
2019-03-30T00:54:33.478Z,10.77
2019-03-30T00:58:56.816Z,11.70
2019-03-30T01:03:20.400Z,12.10
2019-03-30T01:07:35.649Z,11.53
2019-03-30T01:11:48.422Z,11.10
2019-03-30T01:16:03.190Z,10.63
2019-03-30T01:20:16.240Z,10.37
2019-03-30T01:24:29.540Z,11.03
2019-03-30T01:28:42.037Z,11.57
2019-03-30T01:32:54.280Z,11.67
2019-03-30T01:37:07.441Z,11.50
2019-03-30T01:41:20.615Z,11.43
2019-03-30T01:45:32.720Z,10.27
2019-03-30T01:49:44.480Z,10.70
2019-03-30T01:53:57.463Z,11.10
2019-03-30T01:58:10.176Z,10.00
2019-03-30T02:02:22.302Z,11.20
2019-03-30T02:06:34.773Z,10.50
2019-03-30T02:10:48.846Z,9.63
2019-03-30T02:15:01.326Z,12.20
2019-03-30T02:19:12.099Z,10.03
2019-03-30T02:23:23.707Z,10.53
2019-03-30T02:27:36.000Z,10.20
2019-03-30T02:31:48.022Z,9.50
2019-03-30T02:36:00.188Z,9.40
2019-03-30T02:40:11.968Z,8.83
2019-03-30T02:44:22.887Z,10.17
2019-03-30T02:48:35.880Z,8.07
2019-03-30T02:52:50.310Z,8.60
2019-03-30T02:57:01.900Z,7.83
2019-03-30T03:01:13.402Z,8.70
2019-03-30T03:05:24.430Z,8.83
2019-03-30T03:09:36.107Z,8.27
2019-03-30T03:13:48.135Z,7.20
2019-03-30T03:17:59.914Z,7.43
2019-03-30T03:22:12.074Z,8.20
2019-03-30T03:26:23.834Z,7.67
2019-03-30T03:30:37.368Z,7.90
2019-03-30T03:34:48.846Z,7.37
2019-03-30T03:39:02.546Z,7.20
2019-03-30T03:43:15.209Z,6.93
2019-03-30T03:47:28.463Z,7.07
2019-03-30T03:51:39.842Z,6.03
2019-03-30T03:55:52.554Z,6.70
2019-03-30T04:00:05.850Z,7.70
2019-03-30T04:04:19.946Z,6.70
2019-03-30T04:08:33.485Z,7.30
2019-03-30T04:12:51.759Z,5.77
2019-03-30T04:17:03.732Z,6.10
2019-03-30T04:21:15.573Z,5.30
2019-03-30T04:25:27.624Z,6.27
2019-03-30T04:29:39.607Z,5.97
2019-03-30T04:33:51.653Z,6.50
2019-03-30T04:38:03.428Z,5.90
2019-03-30T04:42:15.404Z,5.20
2019-03-30T04:46:27.819Z,5.20
2019-03-30T04:50:39.169Z,4.40
2019-03-30T04:54:50.761Z,6.00
2019-03-30T04:59:01.939Z,4.83
2019-03-30T05:03:14.807Z,4.63
2019-03-30T05:07:25.599Z,4.87
2019-03-30T05:11:37.440Z,4.50
2019-03-30T05:15:48.441Z,4.70
2019-03-30T05:20:00.359Z,4.83
2019-03-30T05:24:15.506Z,4.53
2019-03-30T05:28:27.639Z,4.50
2019-03-30T05:32:41.647Z,4.07
2019-03-30T05:36:53.707Z,3.70
2019-03-30T05:41:05.433Z,3.93
2019-03-30T05:45:26.208Z,4.10
2019-03-30T05:49:38.733Z,3.80
2019-03-30T05:53:51.362Z,4.03
2019-03-30T05:58:03.636Z,4.60
2019-03-30T06:02:15.731Z,3.80
2019-03-30T06:06:27.814Z,3.87
2019-03-30T06:10:39.716Z,3.90
2019-03-30T06:14:52.012Z,4.63
2019-03-30T06:19:05.394Z,4.63
2019-03-30T06:23:17.540Z,3.90
2019-03-30T06:27:29.604Z,3.50
2019-03-30T06:31:41.507Z,3.77
2019-03-30T06:35:53.526Z,3.60
2019-03-30T06:40:04.871Z,4.00
2019-03-30T06:44:16.334Z,3.80
2019-03-30T06:48:28.174Z,4.93
2019-03-30T06:52:42.715Z,4.17
2019-03-30T06:56:53.533Z,4.17
2019-03-30T07:01:05.477Z,3.90
2019-03-30T07:05:18.270Z,3.67
2019-03-30T07:09:33.205Z,3.40
2019-03-30T07:13:46.955Z,4.17
2019-03-30T07:18:01.722Z,3.80
2019-03-30T07:22:13.150Z,3.90
2019-03-30T07:26:24.549Z,3.80
2019-03-30T07:30:36.062Z,3.47
2019-03-30T07:34:48.413Z,3.50
2019-03-30T07:38:59.817Z,3.90
2019-03-30T07:43:12.327Z,3.83
2019-03-30T07:47:24.352Z,4.00
2019-03-30T07:51:35.818Z,3.60
2019-03-30T07:55:47.526Z,3.80
2019-03-30T07:59:59.125Z,3.30
2019-03-30T08:04:11.419Z,3.97
2019-03-30T08:08:23.069Z,3.50
2019-03-30T08:12:34.659Z,3.80
2019-03-30T08:16:47.584Z,3.60
2019-03-30T08:20:59.042Z,3.73
2019-03-30T08:25:12.092Z,3.87
2019-03-30T08:29:24.676Z,3.60
2019-03-30T08:33:36.387Z,3.00
2019-03-30T08:37:47.357Z,3.50
2019-03-30T08:41:58.946Z,3.37
2019-03-30T08:46:10.549Z,3.73
2019-03-30T08:50:22.326Z,3.73
2019-03-30T08:54:34.713Z,3.40
2019-03-30T08:58:47.297Z,3.73
2019-03-30T09:02:59.132Z,3.17
2019-03-30T09:07:12.024Z,3.33
2019-03-30T09:11:24.518Z,3.33
2019-03-30T09:15:36.520Z,4.40
2019-03-30T09:19:48.942Z,3.23
2019-03-30T09:24:09.550Z,3.60
2019-03-30T09:28:14.655Z,3.37
2019-03-30T09:32:27.437Z,3.20
2019-03-30T09:36:39.051Z,3.60
2019-03-30T09:40:51.479Z,3.77
2019-03-30T09:45:03.357Z,3.10
2019-03-30T09:49:17.427Z,3.67
2019-03-30T09:53:30.309Z,3.50
2019-03-30T09:57:43.470Z,2.90
2019-03-30T10:01:55.439Z,3.93
2019-03-30T10:06:07.495Z,3.63
2019-03-30T10:10:18.996Z,3.43
2019-03-30T10:14:30.486Z,3.73
2019-03-30T10:18:42.766Z,4.20
2019-03-30T10:22:55.012Z,3.80
2019-03-30T10:27:08.431Z,3.30
2019-03-30T10:31:20.733Z,3.50
2019-03-30T10:35:32.826Z,3.83
2019-03-30T10:39:44.062Z,3.43
2019-03-30T10:43:57.215Z,3.80
2019-03-30T10:48:09.296Z,3.90
2019-03-30T10:52:24.272Z,4.47
2019-03-30T10:56:36.312Z,4.40
2019-03-30T11:00:48.162Z,3.70
2019-03-30T11:04:59.936Z,4.43
2019-03-30T11:09:12.283Z,5.33
2019-03-30T11:13:24.987Z,4.97
2019-03-30T11:17:37.200Z,4.80
2019-03-30T11:21:48.715Z,6.10
2019-03-30T11:26:01.334Z,5.70
2019-03-30T11:30:13.033Z,14.30
2019-03-30T11:34:25.864Z,20.97
2019-03-30T11:38:38.900Z,23.20
2019-03-30T11:42:50.500Z,24.03
2019-03-30T11:47:02.206Z,21.60
2019-03-30T11:51:14.474Z,24.30
2019-03-30T11:55:26.779Z,23.30
2019-03-30T11:59:39.139Z,23.10
2019-03-30T12:03:52.267Z,24.30
2019-03-30T12:08:04.198Z,23.17
2019-03-30T12:12:16.301Z,21.57
2019-03-30T12:16:28.866Z,19.27
2019-03-30T12:20:41.715Z,20.50
2019-03-30T12:24:53.495Z,21.47
2019-03-30T12:29:04.746Z,18.70
2019-03-30T12:33:15.905Z,18.10
2019-03-30T12:37:27.685Z,19.33
2019-03-30T12:41:39.661Z,18.43
2019-03-30T12:45:51.803Z,18.93
2019-03-30T12:50:03.232Z,18.43
2019-03-30T12:54:14.959Z,19.27
2019-03-30T12:58:25.940Z,19.00
2019-03-30T13:02:38.630Z,16.63
2019-03-30T13:06:50.282Z,17.47
2019-03-30T13:11:03.372Z,18.50
2019-03-30T13:15:16.131Z,19.07
2019-03-30T13:19:29.007Z,17.93
2019-03-30T13:23:40.054Z,15.37
2019-03-30T13:27:53.506Z,15.67
2019-03-30T13:32:05.331Z,15.27
2019-03-30T13:36:17.586Z,15.30
2019-03-30T13:40:29.930Z,16.70
2019-03-30T13:44:41.968Z,15.93
2019-03-30T13:48:54.984Z,16.40
2019-03-30T13:53:07.682Z,15.63
2019-03-30T13:57:18.892Z,15.57
2019-03-30T14:01:31.673Z,15.17
2019-03-30T14:05:44.087Z,16.20
2019-03-30T14:09:57.429Z,14.53
2019-03-30T14:14:08.389Z,14.30
2019-03-30T14:18:20.437Z,15.03
2019-03-30T14:22:32.159Z,14.70
2019-03-30T14:26:44.342Z,13.93
2019-03-30T14:30:56.683Z,13.80
2019-03-30T14:35:09.561Z,14.17
2019-03-30T14:39:22.134Z,15.43
2019-03-30T14:43:35.549Z,12.57
2019-03-30T14:47:47.587Z,15.23
2019-03-30T14:52:00.056Z,13.67
2019-03-30T14:56:13.728Z,14.60
2019-03-30T15:00:25.424Z,14.47
2019-03-30T15:04:37.115Z,13.67
2019-03-30T15:08:49.051Z,14.37
2019-03-30T15:13:01.179Z,13.47
2019-03-30T15:17:13.154Z,14.63
2019-03-30T15:21:25.698Z,14.13
2019-03-30T15:25:37.952Z,15.60
2019-03-30T15:29:49.838Z,15.10
2019-03-30T15:34:01.239Z,13.40
2019-03-30T15:38:13.962Z,13.23
2019-03-30T15:42:25.984Z,13.10
2019-03-30T15:46:37.805Z,13.00
2019-03-30T15:50:49.885Z,13.87
2019-03-30T15:55:02.094Z,13.63
2019-03-30T15:59:14.284Z,14.63
2019-03-30T16:03:27.153Z,14.37
2019-03-30T16:07:41.622Z,16.40
2019-03-30T16:11:55.133Z,18.40
2019-03-30T16:16:09.387Z,16.60
2019-03-30T16:20:21.966Z,16.60
2019-03-30T16:24:34.402Z,17.17
2019-03-30T16:28:48.001Z,16.03
2019-03-30T16:33:01.049Z,15.27
2019-03-30T16:37:12.627Z,15.43
2019-03-30T16:41:26.679Z,15.47
2019-03-30T16:45:40.471Z,15.03
2019-03-30T16:49:54.507Z,15.30
2019-03-30T16:54:06.938Z,14.60
2019-03-30T16:58:20.126Z,15.97
2019-03-30T17:02:32.210Z,15.23
2019-03-30T17:06:45.200Z,16.23
2019-03-30T17:10:57.195Z,14.80
2019-03-30T17:15:09.748Z,16.10
2019-03-30T17:19:22.427Z,17.50
2019-03-30T17:23:34.833Z,14.93
2019-03-30T17:28:08.015Z,15.83
2019-03-30T17:32:20.646Z,15.83
2019-03-30T17:36:42.538Z,15.80
2019-03-30T17:40:55.160Z,15.73
2019-03-30T17:45:06.919Z,15.90
2019-03-30T17:49:25.870Z,15.70
2019-03-30T17:53:39.411Z,15.87
2019-03-30T17:57:52.146Z,16.70
2019-03-30T18:02:03.957Z,15.97
2019-03-30T18:06:15.858Z,16.67
2019-03-30T18:10:27.707Z,17.10
2019-03-30T18:14:39.617Z,16.43
2019-03-30T18:18:52.911Z,16.40
2019-03-30T18:23:05.482Z,17.07
2019-03-30T18:27:17.077Z,16.97
2019-03-30T18:31:30.708Z,15.60
2019-03-30T18:35:44.045Z,17.00
2019-03-30T18:39:56.281Z,16.97
2019-03-30T18:44:08.538Z,18.13
2019-03-30T18:48:24.022Z,17.00
2019-03-30T18:52:35.959Z,16.63
2019-03-30T18:56:50.750Z,17.07
2019-03-30T19:01:04.903Z,17.13
2019-03-30T19:05:16.363Z,17.97
2019-03-30T19:09:29.086Z,16.63
2019-03-30T19:13:41.024Z,16.57
2019-03-30T19:17:53.249Z,16.10
2019-03-30T19:22:05.039Z,16.73
2019-03-30T19:26:17.404Z,17.03
2019-03-30T19:30:29.764Z,16.83
2019-03-30T19:34:42.382Z,18.07
2019-03-30T19:38:54.334Z,17.83
2019-03-30T19:43:06.879Z,18.10
2019-03-30T19:47:18.933Z,17.37
2019-03-30T19:51:30.398Z,16.33
2019-03-30T19:55:42.432Z,18.10
2019-03-30T19:59:54.375Z,18.10
2019-03-30T20:04:07.685Z,17.17
2019-03-30T20:08:18.940Z,17.13
2019-03-30T20:12:30.650Z,17.37
2019-03-30T20:16:42.506Z,16.17
2019-03-30T20:20:55.616Z,15.97
2019-03-30T20:25:07.310Z,16.47
2019-03-30T20:29:25.210Z,17.40
2019-03-30T20:33:31.553Z,16.73
2019-03-30T20:37:44.117Z,20.23
2019-03-30T20:42:15.237Z,30.20
2019-03-30T20:46:28.393Z,26.37
2019-03-30T20:50:40.403Z,35.13
2019-03-30T20:54:52.542Z,39.20
2019-03-30T20:59:05.393Z,39.33
2019-03-30T21:03:18.519Z,39.40
2019-03-30T21:07:32.168Z,38.13
2019-03-30T21:11:44.564Z,35.90
2019-03-30T21:15:56.011Z,33.83
2019-03-30T21:20:07.516Z,35.77
2019-03-30T21:24:19.982Z,30.37
2019-03-30T21:28:31.602Z,31.90
2019-03-30T21:32:44.537Z,36.73
2019-03-30T21:42:09.307Z,29.93
2019-03-30T21:46:21.597Z,28.50
2019-03-30T21:50:33.724Z,28.90
2019-03-30T21:54:45.294Z,24.93
2019-03-30T21:58:56.376Z,26.57
2019-03-30T22:03:07.894Z,28.30
2019-03-30T22:07:20.070Z,27.10
2019-03-30T22:11:32.697Z,27.30
2019-03-30T22:15:45.491Z,25.37
2019-03-30T22:19:57.279Z,25.03
2019-03-30T22:24:12.067Z,25.23
2019-03-30T22:28:24.393Z,25.53
2019-03-30T22:32:38.140Z,26.43
2019-03-30T22:36:51.073Z,25.00
2019-03-30T22:41:03.780Z,22.27
2019-03-30T22:45:16.396Z,24.43
2019-03-30T22:49:27.772Z,22.47
2019-03-30T22:53:41.057Z,21.23
2019-03-30T22:57:59.291Z,22.43
2019-03-30T23:02:20.624Z,21.37
2019-03-30T23:06:49.437Z,21.00
2019-03-30T23:11:11.885Z,24.30
2019-03-30T23:15:35.180Z,164.93
2019-03-30T23:19:50.459Z,35.40
2019-03-30T23:24:13.686Z,33.67
2019-03-30T23:28:38.029Z,35.70
2019-03-30T23:32:50.453Z,28.37
2019-03-30T23:37:02.841Z,29.63
2019-03-30T23:41:25.678Z,28.53
2019-03-30T23:45:38.723Z,27.00
2019-03-30T23:49:52.529Z,27.60
2019-03-30T23:54:04.647Z,26.73
2019-03-30T23:58:27.875Z,26.10
